sensor_id;sensor_type;location;lat;lon;timestamp;temperature;humidity
16229;DHT22;8222;51.462;12.630;2024-01-25T00:01:15;9.70;99.90
16229;DHT22;8222;51.462;12.630;2024-01-25T00:03:41;9.60;99.90
16229;DHT22;8222;51.462;12.630;2024-01-25T00:06:09;9.70;99.90
16229;DHT22;8222;51.462;12.630;2024-01-25T00:08:35;9.70;99.90
16229;DHT22;8222;51.462;12.630;2024-01-25T00:11:03;9.70;99.90
16229;DHT22;8222;51.462;12.630;2024-01-25T00:13:32;9.70;99.90
16229;DHT22;8222;51.462;12.630;2024-01-25T00:15:57;9.60;99.90
16229;DHT22;8222;51.462;12.630;2024-01-25T00:18:23;9.60;99.90
16229;DHT22;8222;51.462;12.630;2024-01-25T00:20:49;9.70;99.90
16229;DHT22;8222;51.462;12.630;2024-01-25T00:23:17;9.60;99.90
16229;DHT22;8222;51.462;12.630;2024-01-25T00:25:43;9.70;99.90
16229;DHT22;8222;51.462;12.630;2024-01-25T00:28:08;9.70;99.90
16229;DHT22;8222;51.462;12.630;2024-01-25T00:30:34;9.70;99.90
16229;DHT22;8222;51.462;12.630;2024-01-25T00:33:00;9.70;99.90
16229;DHT22;8222;51.462;12.630;2024-01-25T00:35:27;9.70;99.90
16229;DHT22;8222;51.462;12.630;2024-01-25T00:37:55;9.70;99.90
16229;DHT22;8222;51.462;12.630;2024-01-25T00:40:24;9.70;99.90
16229;DHT22;8222;51.462;12.630;2024-01-25T00:42:52;9.70;99.90
16229;DHT22;8222;51.462;12.630;2024-01-25T00:45:22;9.70;99.90
16229;DHT22;8222;51.462;12.630;2024-01-25T00:47:51;9.70;99.90
16229;DHT22;8222;51.462;12.630;2024-01-25T00:50:20;9.80;99.90
16229;DHT22;8222;51.462;12.630;2024-01-25T00:52:53;9.80;99.90
16229;DHT22;8222;51.462;12.630;2024-01-25T00:55:19;9.90;99.90
16229;DHT22;8222;51.462;12.630;2024-01-25T00:57:47;9.90;99.90
16229;DHT22;8222;51.462;12.630;2024-01-25T01:00:17;9.90;99.90
16229;DHT22;8222;51.462;12.630;2024-01-25T01:02:44;9.80;99.90
16229;DHT22;8222;51.462;12.630;2024-01-25T01:05:11;9.80;99.90
16229;DHT22;8222;51.462;12.630;2024-01-25T01:07:42;9.80;99.90
16229;DHT22;8222;51.462;12.630;2024-01-25T01:10:10;9.80;99.90
16229;DHT22;8222;51.462;12.630;2024-01-25T01:12:36;9.80;99.90
16229;DHT22;8222;51.462;12.630;2024-01-25T01:15:02;9.80;99.90
16229;DHT22;8222;51.462;12.630;2024-01-25T01:17:28;9.80;99.90
16229;DHT22;8222;51.462;12.630;2024-01-25T01:19:53;9.80;99.90
16229;DHT22;8222;51.462;12.630;2024-01-25T01:22:26;9.80;99.90
16229;DHT22;8222;51.462;12.630;2024-01-25T01:24:51;9.80;99.90
16229;DHT22;8222;51.462;12.630;2024-01-25T01:27:21;9.80;99.90
16229;DHT22;8222;51.462;12.630;2024-01-25T01:29:47;9.80;99.90
16229;DHT22;8222;51.462;12.630;2024-01-25T01:32:15;9.80;99.90
16229;DHT22;8222;51.462;12.630;2024-01-25T01:34:43;9.80;99.90
16229;DHT22;8222;51.462;12.630;2024-01-25T01:37:09;9.70;99.90
16229;DHT22;8222;51.462;12.630;2024-01-25T01:39:37;9.70;99.90
16229;DHT22;8222;51.462;12.630;2024-01-25T01:42:03;9.60;99.90
16229;DHT22;8222;51.462;12.630;2024-01-25T01:44:28;9.70;99.90
16229;DHT22;8222;51.462;12.630;2024-01-25T01:46:57;9.70;99.90
16229;DHT22;8222;51.462;12.630;2024-01-25T01:49:25;9.70;99.90
16229;DHT22;8222;51.462;12.630;2024-01-25T01:51:51;9.70;99.90
16229;DHT22;8222;51.462;12.630;2024-01-25T01:54:18;9.70;99.90
16229;DHT22;8222;51.462;12.630;2024-01-25T01:56:46;9.70;99.90
16229;DHT22;8222;51.462;12.630;2024-01-25T01:59:12;9.70;99.90
16229;DHT22;8222;51.462;12.630;2024-01-25T02:01:38;9.60;99.90
16229;DHT22;8222;51.462;12.630;2024-01-25T02:04:05;9.60;99.90
16229;DHT22;8222;51.462;12.630;2024-01-25T02:06:30;9.60;99.90
16229;DHT22;8222;51.462;12.630;2024-01-25T02:08:56;9.60;99.90
16229;DHT22;8222;51.462;12.630;2024-01-25T02:11:26;9.60;99.90
16229;DHT22;8222;51.462;12.630;2024-01-25T02:13:56;9.60;99.90
16229;DHT22;8222;51.462;12.630;2024-01-25T02:16:26;9.60;99.90
16229;DHT22;8222;51.462;12.630;2024-01-25T02:18:55;9.60;99.90
16229;DHT22;8222;51.462;12.630;2024-01-25T02:21:25;9.60;99.90
16229;DHT22;8222;51.462;12.630;2024-01-25T02:23:51;9.50;99.90
16229;DHT22;8222;51.462;12.630;2024-01-25T02:26:19;9.50;99.90
16229;DHT22;8222;51.462;12.630;2024-01-25T02:28:47;9.40;99.90
16229;DHT22;8222;51.462;12.630;2024-01-25T02:31:15;9.40;99.90
16229;DHT22;8222;51.462;12.630;2024-01-25T02:33:40;9.30;99.90
16229;DHT22;8222;51.462;12.630;2024-01-25T02:36:06;9.30;99.90
16229;DHT22;8222;51.462;12.630;2024-01-25T02:38:32;9.30;99.90
16229;DHT22;8222;51.462;12.630;2024-01-25T02:41:00;9.30;99.90
16229;DHT22;8222;51.462;12.630;2024-01-25T02:43:27;9.30;99.90
16229;DHT22;8222;51.462;12.630;2024-01-25T02:45:53;9.30;99.90
16229;DHT22;8222;51.462;12.630;2024-01-25T02:48:19;9.30;99.90
16229;DHT22;8222;51.462;12.630;2024-01-25T02:50:44;9.20;99.90
16229;DHT22;8222;51.462;12.630;2024-01-25T02:53:12;9.20;99.90
16229;DHT22;8222;51.462;12.630;2024-01-25T02:55:38;9.10;99.90
16229;DHT22;8222;51.462;12.630;2024-01-25T02:58:04;9.10;99.90
16229;DHT22;8222;51.462;12.630;2024-01-25T03:00:29;9.10;99.90
16229;DHT22;8222;51.462;12.630;2024-01-25T03:02:55;9.10;99.90
16229;DHT22;8222;51.462;12.630;2024-01-25T03:05:21;9.00;99.90
16229;DHT22;8222;51.462;12.630;2024-01-25T03:07:48;9.00;99.90
16229;DHT22;8222;51.462;12.630;2024-01-25T03:10:16;9.00;99.90
16229;DHT22;8222;51.462;12.630;2024-01-25T03:12:42;9.00;99.90
16229;DHT22;8222;51.462;12.630;2024-01-25T03:15:10;8.90;99.90
16229;DHT22;8222;51.462;12.630;2024-01-25T03:17:36;8.90;99.90
16229;DHT22;8222;51.462;12.630;2024-01-25T03:20:01;8.90;99.90
16229;DHT22;8222;51.462;12.630;2024-01-25T03:22:27;8.90;99.90
16229;DHT22;8222;51.462;12.630;2024-01-25T03:24:53;8.90;99.90
16229;DHT22;8222;51.462;12.630;2024-01-25T03:27:21;8.90;99.90
16229;DHT22;8222;51.462;12.630;2024-01-25T03:29:49;8.90;99.90
16229;DHT22;8222;51.462;12.630;2024-01-25T03:32:19;8.90;99.90
16229;DHT22;8222;51.462;12.630;2024-01-25T03:34:47;8.90;99.90
16229;DHT22;8222;51.462;12.630;2024-01-25T03:37:15;8.90;99.90
16229;DHT22;8222;51.462;12.630;2024-01-25T03:39:40;8.90;99.90
16229;DHT22;8222;51.462;12.630;2024-01-25T03:42:08;8.90;99.90
16229;DHT22;8222;51.462;12.630;2024-01-25T03:44:36;9.00;99.90
16229;DHT22;8222;51.462;12.630;2024-01-25T03:47:04;9.00;99.90
16229;DHT22;8222;51.462;12.630;2024-01-25T03:49:31;9.00;99.90
16229;DHT22;8222;51.462;12.630;2024-01-25T03:51:56;8.90;99.90
16229;DHT22;8222;51.462;12.630;2024-01-25T03:54:24;9.00;99.90
16229;DHT22;8222;51.462;12.630;2024-01-25T03:56:50;9.00;99.90
16229;DHT22;8222;51.462;12.630;2024-01-25T03:59:18;8.90;99.90
16229;DHT22;8222;51.462;12.630;2024-01-25T04:01:45;8.90;99.90
16229;DHT22;8222;51.462;12.630;2024-01-25T04:04:14;8.90;99.90
16229;DHT22;8222;51.462;12.630;2024-01-25T04:06:44;8.80;99.90
16229;DHT22;8222;51.462;12.630;2024-01-25T04:09:11;8.90;99.90
16229;DHT22;8222;51.462;12.630;2024-01-25T04:11:40;8.80;99.90
16229;DHT22;8222;51.462;12.630;2024-01-25T04:14:09;8.80;99.90
16229;DHT22;8222;51.462;12.630;2024-01-25T04:16:37;8.80;99.90
16229;DHT22;8222;51.462;12.630;2024-01-25T04:19:07;8.80;99.90
16229;DHT22;8222;51.462;12.630;2024-01-25T04:21:33;8.80;99.90
16229;DHT22;8222;51.462;12.630;2024-01-25T04:23:58;8.80;99.90
16229;DHT22;8222;51.462;12.630;2024-01-25T04:26:26;8.80;99.90
16229;DHT22;8222;51.462;12.630;2024-01-25T04:28:52;8.90;99.90
16229;DHT22;8222;51.462;12.630;2024-01-25T04:31:17;8.90;99.90
16229;DHT22;8222;51.462;12.630;2024-01-25T04:33:49;8.90;99.90
16229;DHT22;8222;51.462;12.630;2024-01-25T04:36:15;9.00;99.90
16229;DHT22;8222;51.462;12.630;2024-01-25T04:38:41;8.90;99.90
16229;DHT22;8222;51.462;12.630;2024-01-25T04:41:09;8.90;99.90
16229;DHT22;8222;51.462;12.630;2024-01-25T04:43:39;9.00;99.90
16229;DHT22;8222;51.462;12.630;2024-01-25T04:46:09;9.00;99.90
16229;DHT22;8222;51.462;12.630;2024-01-25T04:48:35;9.00;99.90
16229;DHT22;8222;51.462;12.630;2024-01-25T04:51:03;9.10;99.90
16229;DHT22;8222;51.462;12.630;2024-01-25T04:53:28;9.10;99.90
16229;DHT22;8222;51.462;12.630;2024-01-25T04:55:54;9.10;99.90
16229;DHT22;8222;51.462;12.630;2024-01-25T04:58:21;9.10;99.90
16229;DHT22;8222;51.462;12.630;2024-01-25T05:00:49;9.10;99.90
16229;DHT22;8222;51.462;12.630;2024-01-25T05:03:15;9.10;99.90
16229;DHT22;8222;51.462;12.630;2024-01-25T05:05:41;9.00;99.90
16229;DHT22;8222;51.462;12.630;2024-01-25T05:08:09;9.00;99.90
16229;DHT22;8222;51.462;12.630;2024-01-25T05:10:35;9.00;99.90
16229;DHT22;8222;51.462;12.630;2024-01-25T05:13:05;9.00;99.90
16229;DHT22;8222;51.462;12.630;2024-01-25T05:15:33;9.00;99.90
16229;DHT22;8222;51.462;12.630;2024-01-25T05:18:02;9.00;99.90
16229;DHT22;8222;51.462;12.630;2024-01-25T05:20:30;9.00;99.90
16229;DHT22;8222;51.462;12.630;2024-01-25T05:23:07;9.00;99.90
16229;DHT22;8222;51.462;12.630;2024-01-25T05:25:32;9.00;99.90
16229;DHT22;8222;51.462;12.630;2024-01-25T05:27:58;9.00;99.90
16229;DHT22;8222;51.462;12.630;2024-01-25T05:30:25;9.00;99.90
16229;DHT22;8222;51.462;12.630;2024-01-25T05:32:50;9.00;99.90
16229;DHT22;8222;51.462;12.630;2024-01-25T05:35:17;9.00;99.90
16229;DHT22;8222;51.462;12.630;2024-01-25T05:37:46;9.00;99.90
16229;DHT22;8222;51.462;12.630;2024-01-25T05:40:11;9.00;99.90
16229;DHT22;8222;51.462;12.630;2024-01-25T05:42:37;9.10;99.90
16229;DHT22;8222;51.462;12.630;2024-01-25T05:45:04;9.10;99.90
16229;DHT22;8222;51.462;12.630;2024-01-25T05:47:31;9.10;99.90
16229;DHT22;8222;51.462;12.630;2024-01-25T05:49:57;9.20;99.90
16229;DHT22;8222;51.462;12.630;2024-01-25T05:52:23;9.20;99.90
16229;DHT22;8222;51.462;12.630;2024-01-25T05:54:50;9.10;99.90
16229;DHT22;8222;51.462;12.630;2024-01-25T05:57:18;9.10;99.90
16229;DHT22;8222;51.462;12.630;2024-01-25T05:59:44;9.10;99.90
16229;DHT22;8222;51.462;12.630;2024-01-25T06:02:10;9.10;99.90
16229;DHT22;8222;51.462;12.630;2024-01-25T06:04:40;9.10;99.90
16229;DHT22;8222;51.462;12.630;2024-01-25T06:07:08;9.10;99.90
16229;DHT22;8222;51.462;12.630;2024-01-25T06:09:39;9.10;99.90
16229;DHT22;8222;51.462;12.630;2024-01-25T06:12:08;9.00;99.90
16229;DHT22;8222;51.462;12.630;2024-01-25T06:14:36;9.00;99.90
16229;DHT22;8222;51.462;12.630;2024-01-25T06:17:04;9.00;99.90
16229;DHT22;8222;51.462;12.630;2024-01-25T06:19:29;9.00;99.90
16229;DHT22;8222;51.462;12.630;2024-01-25T06:21:55;9.00;99.90
16229;DHT22;8222;51.462;12.630;2024-01-25T06:24:23;9.00;99.90
16229;DHT22;8222;51.462;12.630;2024-01-25T06:26:49;9.00;99.90
16229;DHT22;8222;51.462;12.630;2024-01-25T06:29:17;9.10;99.90
16229;DHT22;8222;51.462;12.630;2024-01-25T06:31:43;9.00;99.90
16229;DHT22;8222;51.462;12.630;2024-01-25T06:34:11;9.00;99.90
16229;DHT22;8222;51.462;12.630;2024-01-25T06:36:37;9.00;99.90
16229;DHT22;8222;51.462;12.630;2024-01-25T06:39:03;9.00;99.90
16229;DHT22;8222;51.462;12.630;2024-01-25T06:41:34;9.10;99.90
16229;DHT22;8222;51.462;12.630;2024-01-25T06:44:02;9.10;99.90
16229;DHT22;8222;51.462;12.630;2024-01-25T06:46:28;9.10;99.90
16229;DHT22;8222;51.462;12.630;2024-01-25T06:48:54;9.10;99.90
16229;DHT22;8222;51.462;12.630;2024-01-25T06:51:19;9.10;99.90
16229;DHT22;8222;51.462;12.630;2024-01-25T06:53:45;9.10;99.90
16229;DHT22;8222;51.462;12.630;2024-01-25T06:56:11;9.10;99.90
16229;DHT22;8222;51.462;12.630;2024-01-25T06:58:36;9.10;99.90
16229;DHT22;8222;51.462;12.630;2024-01-25T07:01:04;9.10;99.90
16229;DHT22;8222;51.462;12.630;2024-01-25T07:03:32;9.00;99.90
16229;DHT22;8222;51.462;12.630;2024-01-25T07:05:58;8.90;99.90
16229;DHT22;8222;51.462;12.630;2024-01-25T07:08:27;8.90;99.90
16229;DHT22;8222;51.462;12.630;2024-01-25T07:10:53;8.90;99.90
16229;DHT22;8222;51.462;12.630;2024-01-25T07:13:18;8.90;99.90
16229;DHT22;8222;51.462;12.630;2024-01-25T07:15:46;8.90;99.90
16229;DHT22;8222;51.462;12.630;2024-01-25T07:18:12;8.90;99.90
16229;DHT22;8222;51.462;12.630;2024-01-25T07:20:37;8.90;99.90
16229;DHT22;8222;51.462;12.630;2024-01-25T07:23:08;9.00;99.90
16229;DHT22;8222;51.462;12.630;2024-01-25T07:25:36;9.00;99.90
16229;DHT22;8222;51.462;12.630;2024-01-25T07:28:02;8.90;99.90
16229;DHT22;8222;51.462;12.630;2024-01-25T07:30:28;9.00;99.90
16229;DHT22;8222;51.462;12.630;2024-01-25T07:32:53;8.90;99.90
16229;DHT22;8222;51.462;12.630;2024-01-25T07:35:19;8.90;99.90
16229;DHT22;8222;51.462;12.630;2024-01-25T07:37:47;8.90;99.90
16229;DHT22;8222;51.462;12.630;2024-01-25T07:40:13;8.90;99.90
16229;DHT22;8222;51.462;12.630;2024-01-25T07:42:39;8.90;99.90
16229;DHT22;8222;51.462;12.630;2024-01-25T07:45:05;8.90;99.90
16229;DHT22;8222;51.462;12.630;2024-01-25T07:47:33;8.80;99.90
16229;DHT22;8222;51.462;12.630;2024-01-25T07:49:59;8.90;99.90
16229;DHT22;8222;51.462;12.630;2024-01-25T07:52:26;9.00;99.90
16229;DHT22;8222;51.462;12.630;2024-01-25T07:54:52;8.90;99.90
16229;DHT22;8222;51.462;12.630;2024-01-25T07:57:20;9.00;99.90
16229;DHT22;8222;51.462;12.630;2024-01-25T07:59:46;8.90;99.90
16229;DHT22;8222;51.462;12.630;2024-01-25T08:02:13;8.90;99.90
16229;DHT22;8222;51.462;12.630;2024-01-25T08:04:39;9.00;99.90
16229;DHT22;8222;51.462;12.630;2024-01-25T08:07:05;9.00;99.90
16229;DHT22;8222;51.462;12.630;2024-01-25T08:09:30;9.10;99.90
16229;DHT22;8222;51.462;12.630;2024-01-25T08:11:56;9.80;99.90
16229;DHT22;8222;51.462;12.630;2024-01-25T08:14:22;9.20;99.90
16229;DHT22;8222;51.462;12.630;2024-01-25T08:16:47;9.20;99.90
16229;DHT22;8222;51.462;12.630;2024-01-25T08:19:16;9.20;99.90
16229;DHT22;8222;51.462;12.630;2024-01-25T08:21:44;9.10;99.90
16229;DHT22;8222;51.462;12.630;2024-01-25T08:24:10;9.10;99.90
16229;DHT22;8222;51.462;12.630;2024-01-25T08:26:39;9.10;99.90
16229;DHT22;8222;51.462;12.630;2024-01-25T08:29:04;9.10;99.90
16229;DHT22;8222;51.462;12.630;2024-01-25T08:31:30;9.20;99.90
16229;DHT22;8222;51.462;12.630;2024-01-25T08:33:58;9.20;99.90
16229;DHT22;8222;51.462;12.630;2024-01-25T08:36:24;9.30;99.90
16229;DHT22;8222;51.462;12.630;2024-01-25T08:38:52;9.30;99.90
16229;DHT22;8222;51.462;12.630;2024-01-25T08:41:20;9.40;99.90
16229;DHT22;8222;51.462;12.630;2024-01-25T08:43:48;9.30;99.90
16229;DHT22;8222;51.462;12.630;2024-01-25T08:46:14;9.40;99.90
16229;DHT22;8222;51.462;12.630;2024-01-25T08:48:43;9.40;99.90
16229;DHT22;8222;51.462;12.630;2024-01-25T08:51:09;9.50;99.90
16229;DHT22;8222;51.462;12.630;2024-01-25T08:53:36;9.60;99.90
16229;DHT22;8222;51.462;12.630;2024-01-25T08:56:05;9.70;99.90
16229;DHT22;8222;51.462;12.630;2024-01-25T08:58:33;9.70;99.90
16229;DHT22;8222;51.462;12.630;2024-01-25T09:00:59;9.70;99.90
16229;DHT22;8222;51.462;12.630;2024-01-25T09:03:27;9.70;99.90
16229;DHT22;8222;51.462;12.630;2024-01-25T09:05:55;9.70;99.90
16229;DHT22;8222;51.462;12.630;2024-01-25T09:08:20;9.70;99.90
16229;DHT22;8222;51.462;12.630;2024-01-25T09:10:48;9.70;99.90
16229;DHT22;8222;51.462;12.630;2024-01-25T09:13:17;9.70;99.90
16229;DHT22;8222;51.462;12.630;2024-01-25T09:15:42;9.80;99.90
16229;DHT22;8222;51.462;12.630;2024-01-25T09:18:09;9.60;99.90
16229;DHT22;8222;51.462;12.630;2024-01-25T09:20:35;9.70;99.90
16229;DHT22;8222;51.462;12.630;2024-01-25T09:23:01;9.70;99.90
16229;DHT22;8222;51.462;12.630;2024-01-25T09:25:26;9.80;99.90
16229;DHT22;8222;51.462;12.630;2024-01-25T09:27:52;9.90;99.90
16229;DHT22;8222;51.462;12.630;2024-01-25T09:30:22;9.90;99.90
16229;DHT22;8222;51.462;12.630;2024-01-25T09:32:48;9.90;99.90
16229;DHT22;8222;51.462;12.630;2024-01-25T09:35:16;10.00;99.90
16229;DHT22;8222;51.462;12.630;2024-01-25T09:37:42;10.00;99.90
16229;DHT22;8222;51.462;12.630;2024-01-25T09:40:12;10.10;99.90
16229;DHT22;8222;51.462;12.630;2024-01-25T09:42:38;10.10;99.90
16229;DHT22;8222;51.462;12.630;2024-01-25T09:45:07;10.20;99.90
16229;DHT22;8222;51.462;12.630;2024-01-25T09:47:36;10.20;99.90
16229;DHT22;8222;51.462;12.630;2024-01-25T09:50:04;10.10;99.90
16229;DHT22;8222;51.462;12.630;2024-01-25T09:52:31;10.10;99.90
16229;DHT22;8222;51.462;12.630;2024-01-25T09:54:58;10.10;99.90
16229;DHT22;8222;51.462;12.630;2024-01-25T09:57:24;10.20;99.90
16229;DHT22;8222;51.462;12.630;2024-01-25T09:59:54;10.30;99.90
16229;DHT22;8222;51.462;12.630;2024-01-25T10:02:22;10.20;99.90
16229;DHT22;8222;51.462;12.630;2024-01-25T10:04:54;10.20;99.90
16229;DHT22;8222;51.462;12.630;2024-01-25T10:07:41;10.10;99.90
16229;DHT22;8222;51.462;12.630;2024-01-25T10:10:08;10.20;99.90
16229;DHT22;8222;51.462;12.630;2024-01-25T10:12:45;10.30;99.90
16229;DHT22;8222;51.462;12.630;2024-01-25T10:15:10;10.30;99.90
16229;DHT22;8222;51.462;12.630;2024-01-25T10:17:39;10.30;99.90
16229;DHT22;8222;51.462;12.630;2024-01-25T10:20:06;10.30;99.90
16229;DHT22;8222;51.462;12.630;2024-01-25T10:22:37;10.20;99.90
16229;DHT22;8222;51.462;12.630;2024-01-25T10:25:03;10.10;99.90
16229;DHT22;8222;51.462;12.630;2024-01-25T10:27:31;10.10;99.90
16229;DHT22;8222;51.462;12.630;2024-01-25T10:29:56;10.20;99.90
16229;DHT22;8222;51.462;12.630;2024-01-25T10:32:22;10.30;99.90
16229;DHT22;8222;51.462;12.630;2024-01-25T10:34:51;10.40;99.90
16229;DHT22;8222;51.462;12.630;2024-01-25T10:37:18;10.30;99.90
16229;DHT22;8222;51.462;12.630;2024-01-25T10:39:46;10.30;99.90
16229;DHT22;8222;51.462;12.630;2024-01-25T10:42:16;10.30;99.90
16229;DHT22;8222;51.462;12.630;2024-01-25T10:44:45;10.20;99.90
16229;DHT22;8222;51.462;12.630;2024-01-25T10:47:11;10.10;99.90
16229;DHT22;8222;51.462;12.630;2024-01-25T10:49:37;10.30;99.90
16229;DHT22;8222;51.462;12.630;2024-01-25T10:52:06;10.40;99.90
16229;DHT22;8222;51.462;12.630;2024-01-25T10:54:32;10.40;99.90
16229;DHT22;8222;51.462;12.630;2024-01-25T10:56:58;10.40;99.90
16229;DHT22;8222;51.462;12.630;2024-01-25T10:59:24;10.40;99.90
16229;DHT22;8222;51.462;12.630;2024-01-25T11:01:54;10.50;99.90
16229;DHT22;8222;51.462;12.630;2024-01-25T11:04:20;10.40;99.90
16229;DHT22;8222;51.462;12.630;2024-01-25T11:06:46;10.30;99.90
16229;DHT22;8222;51.462;12.630;2024-01-25T11:09:21;10.30;99.90
16229;DHT22;8222;51.462;12.630;2024-01-25T11:11:48;10.40;99.90
16229;DHT22;8222;51.462;12.630;2024-01-25T11:14:19;10.40;99.90
16229;DHT22;8222;51.462;12.630;2024-01-25T11:16:45;10.50;99.90
16229;DHT22;8222;51.462;12.630;2024-01-25T11:19:20;10.60;99.90
16229;DHT22;8222;51.462;12.630;2024-01-25T11:21:50;10.60;99.90
16229;DHT22;8222;51.462;12.630;2024-01-25T11:24:25;10.80;99.90
16229;DHT22;8222;51.462;12.630;2024-01-25T11:26:55;11.00;99.90
16229;DHT22;8222;51.462;12.630;2024-01-25T11:29:22;11.00;99.90
16229;DHT22;8222;51.462;12.630;2024-01-25T11:31:51;11.10;99.90
16229;DHT22;8222;51.462;12.630;2024-01-25T11:34:17;11.10;99.90
16229;DHT22;8222;51.462;12.630;2024-01-25T11:36:51;11.10;99.90
16229;DHT22;8222;51.462;12.630;2024-01-25T11:39:19;11.00;99.90
16229;DHT22;8222;51.462;12.630;2024-01-25T11:41:47;11.00;99.90
16229;DHT22;8222;51.462;12.630;2024-01-25T11:44:16;11.00;99.90
16229;DHT22;8222;51.462;12.630;2024-01-25T11:46:42;11.20;99.90
16229;DHT22;8222;51.462;12.630;2024-01-25T11:49:08;11.30;99.90
16229;DHT22;8222;51.462;12.630;2024-01-25T11:51:34;11.30;99.90
16229;DHT22;8222;51.462;12.630;2024-01-25T11:54:00;11.30;99.90
16229;DHT22;8222;51.462;12.630;2024-01-25T11:56:33;11.60;99.90
16229;DHT22;8222;51.462;12.630;2024-01-25T11:58:59;11.50;99.90
16229;DHT22;8222;51.462;12.630;2024-01-25T12:01:30;11.60;99.90
16229;DHT22;8222;51.462;12.630;2024-01-25T12:03:58;11.70;99.90
16229;DHT22;8222;51.462;12.630;2024-01-25T12:06:26;11.90;99.90
16229;DHT22;8222;51.462;12.630;2024-01-25T12:08:54;12.00;99.90
16229;DHT22;8222;51.462;12.630;2024-01-25T12:11:22;11.90;99.90
16229;DHT22;8222;51.462;12.630;2024-01-25T12:13:52;11.90;99.90
16229;DHT22;8222;51.462;12.630;2024-01-25T12:16:22;11.60;99.90
16229;DHT22;8222;51.462;12.630;2024-01-25T12:18:47;11.40;99.90
16229;DHT22;8222;51.462;12.630;2024-01-25T12:21:16;11.50;99.90
16229;DHT22;8222;51.462;12.630;2024-01-25T12:23:42;11.30;99.90
16229;DHT22;8222;51.462;12.630;2024-01-25T12:26:12;11.10;99.90
16229;DHT22;8222;51.462;12.630;2024-01-25T12:28:37;11.00;99.90
16229;DHT22;8222;51.462;12.630;2024-01-25T12:31:05;11.00;99.90
16229;DHT22;8222;51.462;12.630;2024-01-25T12:33:33;11.00;99.90
16229;DHT22;8222;51.462;12.630;2024-01-25T12:36:00;11.10;99.90
16229;DHT22;8222;51.462;12.630;2024-01-25T12:38:28;11.40;99.90
16229;DHT22;8222;51.462;12.630;2024-01-25T12:40:57;11.30;99.90
16229;DHT22;8222;51.462;12.630;2024-01-25T12:43:22;11.30;99.90
16229;DHT22;8222;51.462;12.630;2024-01-25T12:45:50;11.10;99.90
16229;DHT22;8222;51.462;12.630;2024-01-25T12:48:17;11.00;99.90
16229;DHT22;8222;51.462;12.630;2024-01-25T12:50:46;10.90;99.90
16229;DHT22;8222;51.462;12.630;2024-01-25T12:53:11;10.80;99.90
16229;DHT22;8222;51.462;12.630;2024-01-25T12:55:40;10.60;99.90
16229;DHT22;8222;51.462;12.630;2024-01-25T12:58:06;10.60;99.90
16229;DHT22;8222;51.462;12.630;2024-01-25T13:00:32;10.50;99.90
16229;DHT22;8222;51.462;12.630;2024-01-25T13:02:58;10.50;99.90
16229;DHT22;8222;51.462;12.630;2024-01-25T13:05:26;10.50;99.90
16229;DHT22;8222;51.462;12.630;2024-01-25T13:07:52;10.40;99.90
16229;DHT22;8222;51.462;12.630;2024-01-25T13:10:20;10.40;99.90
16229;DHT22;8222;51.462;12.630;2024-01-25T13:12:46;10.40;99.90
16229;DHT22;8222;51.462;12.630;2024-01-25T13:15:14;10.20;99.90
16229;DHT22;8222;51.462;12.630;2024-01-25T13:17:42;10.20;99.90
16229;DHT22;8222;51.462;12.630;2024-01-25T13:20:13;10.10;99.90
16229;DHT22;8222;51.462;12.630;2024-01-25T13:22:40;10.00;99.90
16229;DHT22;8222;51.462;12.630;2024-01-25T13:25:06;10.10;99.90
16229;DHT22;8222;51.462;12.630;2024-01-25T13:27:36;10.00;99.90
16229;DHT22;8222;51.462;12.630;2024-01-25T13:30:02;10.00;99.90
16229;DHT22;8222;51.462;12.630;2024-01-25T13:32:31;9.90;99.90
16229;DHT22;8222;51.462;12.630;2024-01-25T13:34:57;9.90;99.90
16229;DHT22;8222;51.462;12.630;2024-01-25T13:37:22;9.80;99.90
16229;DHT22;8222;51.462;12.630;2024-01-25T13:39:48;9.80;99.90
16229;DHT22;8222;51.462;12.630;2024-01-25T13:42:14;9.80;99.90
16229;DHT22;8222;51.462;12.630;2024-01-25T13:44:39;9.80;99.90
16229;DHT22;8222;51.462;12.630;2024-01-25T13:47:07;9.90;99.90
16229;DHT22;8222;51.462;12.630;2024-01-25T13:49:33;9.90;99.90
16229;DHT22;8222;51.462;12.630;2024-01-25T13:52:00;9.80;99.90
16229;DHT22;8222;51.462;12.630;2024-01-25T13:54:28;9.80;99.90
16229;DHT22;8222;51.462;12.630;2024-01-25T13:56:56;9.80;99.90
16229;DHT22;8222;51.462;12.630;2024-01-25T13:59:22;9.80;99.90
16229;DHT22;8222;51.462;12.630;2024-01-25T14:01:49;10.40;99.90
16229;DHT22;8222;51.462;12.630;2024-01-25T14:04:16;9.90;99.90
16229;DHT22;8222;51.462;12.630;2024-01-25T14:06:44;9.80;99.90
16229;DHT22;8222;51.462;12.630;2024-01-25T14:09:09;9.80;99.90
16229;DHT22;8222;51.462;12.630;2024-01-25T14:11:35;9.80;99.90
16229;DHT22;8222;51.462;12.630;2024-01-25T14:14:01;9.80;99.90
16229;DHT22;8222;51.462;12.630;2024-01-25T14:16:26;9.80;99.90
16229;DHT22;8222;51.462;12.630;2024-01-25T14:18:54;9.80;99.90
16229;DHT22;8222;51.462;12.630;2024-01-25T14:21:20;9.70;99.90
16229;DHT22;8222;51.462;12.630;2024-01-25T14:23:46;9.70;99.90
16229;DHT22;8222;51.462;12.630;2024-01-25T14:26:12;9.70;99.90
16229;DHT22;8222;51.462;12.630;2024-01-25T14:28:40;9.80;99.90
16229;DHT22;8222;51.462;12.630;2024-01-25T14:31:06;9.90;99.90
16229;DHT22;8222;51.462;12.630;2024-01-25T14:33:31;9.90;99.90
16229;DHT22;8222;51.462;12.630;2024-01-25T14:36:02;9.80;99.90
16229;DHT22;8222;51.462;12.630;2024-01-25T14:38:29;9.90;99.90
16229;DHT22;8222;51.462;12.630;2024-01-25T14:40:55;9.80;99.90
16229;DHT22;8222;51.462;12.630;2024-01-25T14:43:23;9.70;99.90
16229;DHT22;8222;51.462;12.630;2024-01-25T14:45:48;9.70;99.90
16229;DHT22;8222;51.462;12.630;2024-01-25T14:48:20;9.70;99.90
16229;DHT22;8222;51.462;12.630;2024-01-25T14:50:45;9.70;99.90
16229;DHT22;8222;51.462;12.630;2024-01-25T14:53:11;9.80;99.90
16229;DHT22;8222;51.462;12.630;2024-01-25T14:55:40;9.80;99.90
16229;DHT22;8222;51.462;12.630;2024-01-25T14:58:06;9.80;99.90
16229;DHT22;8222;51.462;12.630;2024-01-25T15:00:37;9.80;99.90
16229;DHT22;8222;51.462;12.630;2024-01-25T15:03:06;9.80;99.90
16229;DHT22;8222;51.462;12.630;2024-01-25T15:05:32;9.80;99.90
16229;DHT22;8222;51.462;12.630;2024-01-25T15:07:57;9.70;99.90
16229;DHT22;8222;51.462;12.630;2024-01-25T15:10:24;9.60;99.90
16229;DHT22;8222;51.462;12.630;2024-01-25T15:12:49;9.60;99.90
16229;DHT22;8222;51.462;12.630;2024-01-25T15:15:19;9.70;99.90
16229;DHT22;8222;51.462;12.630;2024-01-25T15:17:47;9.70;99.90
16229;DHT22;8222;51.462;12.630;2024-01-25T15:20:12;9.70;99.90
16229;DHT22;8222;51.462;12.630;2024-01-25T15:22:40;9.70;99.90
16229;DHT22;8222;51.462;12.630;2024-01-25T15:25:08;9.80;99.90
16229;DHT22;8222;51.462;12.630;2024-01-25T15:27:37;9.80;99.90
16229;DHT22;8222;51.462;12.630;2024-01-25T15:30:05;9.80;99.90
16229;DHT22;8222;51.462;12.630;2024-01-25T15:32:33;9.70;99.90
16229;DHT22;8222;51.462;12.630;2024-01-25T15:34:59;9.60;99.90
16229;DHT22;8222;51.462;12.630;2024-01-25T15:37:27;9.60;99.90
16229;DHT22;8222;51.462;12.630;2024-01-25T15:39:53;9.50;99.90
16229;DHT22;8222;51.462;12.630;2024-01-25T15:42:18;9.50;99.90